Time;durP1;ratioP1;P1;durP2;ratioP2;P2;SDS_P1;SDS_P2;PMS_P1;PMS_P2;Temp;Humidity;BMP_temperature;BMP_pressure;BME280_temperature;BME280_humidity;BME280_pressure;Samples;Min_cycle;Max_cycle;Signal;HPM_P1;HPM_P2
2023/04/05 00:02:09;;;;;;;;;;;;;;;3.70;79.04;100701.72;5051439;28;19952;-59
2023/04/05 00:04:35;;;;;;;;;;;;;;;3.66;79.04;100694.66;5047126;28;20420;-59
2023/04/05 00:07:01;;;;;;;;;;;;;;;3.64;78.99;100702.53;5053777;28;19929;-59
2023/04/05 00:09:27;;;;;;;;;;;;;;;3.62;78.92;100695.53;5056204;28;20073;-59
2023/04/05 00:11:52;;;;;;;;;;;;;;;3.62;79.06;100703.41;5059294;28;20426;-58
2023/04/05 00:14:18;;;;;;;;;;;;;;;3.59;79.50;100700.78;5061890;28;19976;-59
2023/04/05 00:16:43;;;;;;;;;;;;;;;3.54;79.56;100707.75;5070522;28;19916;-59
2023/04/05 00:19:11;;;;;;;;;;;;;;;3.53;79.39;100700.72;5070210;28;19938;-58
2023/04/05 00:21:38;;;;;;;;;;;;;;;3.46;79.36;100693.69;5065970;28;19976;-59
2023/04/05 00:24:04;;;;;;;;;;;;;;;3.43;79.34;100697.16;5069530;28;20004;-59
2023/04/05 00:26:29;;;;;;;;;;;;;;;3.41;79.20;100700.66;5066114;28;20461;-59
2023/04/05 00:28:54;;;;;;;;;;;;;;;3.40;79.28;100691.00;5069882;28;19926;-59
2023/04/05 00:31:20;;;;;;;;;;;;;;;3.37;79.95;100688.34;5068414;28;19937;-59
2023/04/05 00:33:45;;;;;;;;;;;;;;;3.35;79.71;100684.81;5060656;28;20033;-59
2023/04/05 00:36:11;;;;;;;;;;;;;;;3.35;80.49;100684.81;5070763;28;20012;-59
2023/04/05 00:38:37;;;;;;;;;;;;;;;3.32;81.28;100675.19;5061113;28;20070;-59
2023/04/05 00:41:02;;;;;;;;;;;;;;;3.35;80.26;100674.31;5051225;28;20439;-59
2023/04/05 00:43:27;;;;;;;;;;;;;;;3.34;79.98;100677.81;5049862;28;20019;-59
2023/04/05 00:45:53;;;;;;;;;;;;;;;3.33;79.91;100678.66;5050901;28;19963;-59
2023/04/05 00:48:19;;;;;;;;;;;;;;;3.33;80.03;100678.66;5049836;28;19927;-59
2023/04/05 00:50:46;;;;;;;;;;;;;;;3.32;79.74;100685.69;5034294;28;19932;-59
2023/04/05 00:53:11;;;;;;;;;;;;;;;3.31;80.18;100683.06;5059262;28;19961;-59
2023/04/05 00:55:37;;;;;;;;;;;;;;;3.33;80.23;100681.28;5047461;28;19927;-59
2023/04/05 00:58:02;;;;;;;;;;;;;;;3.37;80.33;100683.97;5050250;28;20067;-59
2023/04/05 01:00:29;;;;;;;;;;;;;;;3.43;80.11;100672.59;5050890;28;19924;-59
2023/04/05 01:02:57;;;;;;;;;;;;;;;3.42;80.29;100677.00;5050733;28;19941;-59
2023/04/05 01:05:37;;;;;;;;;;;;;;;3.41;80.73;100664.69;5046790;28;19966;-59
2023/04/05 01:08:24;;;;;;;;;;;;;;;3.45;79.38;100669.13;5050396;28;20025;-59
2023/04/05 01:10:54;;;;;;;;;;;;;;;3.47;79.68;100659.50;5044462;28;19929;-59
2023/04/05 01:13:19;;;;;;;;;;;;;;;3.47;79.15;100654.25;5050450;28;20006;-59
2023/04/05 01:15:44;;;;;;;;;;;;;;;3.49;78.16;100659.50;5050519;28;20031;-59
2023/04/05 01:18:10;;;;;;;;;;;;;;;3.44;78.20;100659.47;5036387;28;20570;-59
2023/04/05 01:20:43;;;;;;;;;;;;;;;3.45;78.23;100662.97;5030745;28;19934;-58
2023/04/05 01:23:32;;;;;;;;;;;;;;;3.42;78.95;100655.06;5033099;28;19986;-59
2023/04/05 01:26:15;;;;;;;;;;;;;;;3.42;78.66;100652.44;5030637;28;20009;-59
2023/04/05 01:28:57;;;;;;;;;;;;;;;3.46;78.88;100656.88;5033008;28;19933;-59
2023/04/05 01:31:41;;;;;;;;;;;;;;;3.44;77.83;100651.56;5030461;28;20093;-59
2023/04/05 01:34:14;;;;;;;;;;;;;;;3.38;78.06;100648.03;5041242;28;19927;-59
2023/04/05 01:36:42;;;;;;;;;;;;;;;3.33;77.83;100645.38;5035982;28;19970;-59
2023/04/05 01:39:10;;;;;;;;;;;;;;;3.27;77.99;100645.34;5047757;28;20394;-59
2023/04/05 01:41:37;;;;;;;;;;;;;;;3.22;77.99;100644.44;5039454;28;19936;-59
2023/04/05 01:44:02;;;;;;;;;;;;;;;3.16;78.32;100648.78;5046447;28;19965;-59
2023/04/05 01:46:27;;;;;;;;;;;;;;;3.08;78.41;100642.59;5047109;28;19931;-59
2023/04/05 01:48:53;;;;;;;;;;;;;;;3.05;79.55;100647.81;5047757;28;19936;-59
2023/04/05 01:51:19;;;;;;;;;;;;;;;3.02;79.65;100645.16;5049336;28;19923;-59
2023/04/05 01:53:45;;;;;;;;;;;;;;;2.98;79.32;100636.38;5046959;28;19999;-59
2023/04/05 01:56:10;;;;;;;;;;;;;;;2.93;79.07;100631.97;5050168;28;19990;-59
2023/04/05 01:58:35;;;;;;;;;;;;;;;2.88;79.66;100629.31;5049825;28;19935;-59
2023/04/05 02:01:01;;;;;;;;;;;;;;;2.84;79.90;100627.50;5049508;28;19913;-59
2023/04/05 02:03:26;;;;;;;;;;;;;;;2.78;79.97;100637.06;5058157;28;20001;-59
2023/04/05 02:05:51;;;;;;;;;;;;;;;2.71;80.25;100625.66;5069693;28;19964;-59
2023/04/05 02:08:17;;;;;;;;;;;;;;;2.70;80.38;100630.00;5066557;28;19949;-59
2023/04/05 02:10:42;;;;;;;;;;;;;;;2.68;81.11;100626.47;5069652;28;19942;-59
2023/04/05 02:13:08;;;;;;;;;;;;;;;2.65;81.33;100631.72;5069647;28;20332;-59
2023/04/05 02:15:33;;;;;;;;;;;;;;;2.65;81.62;100631.72;5069255;28;19981;-59
2023/04/05 02:18:00;;;;;;;;;;;;;;;2.60;82.11;100630.78;5058872;28;19989;-59
2023/04/05 02:20:27;;;;;;;;;;;;;;;2.59;82.02;100633.41;5049811;28;19940;-59
2023/04/05 02:22:52;;;;;;;;;;;;;;;2.57;82.55;100632.53;5050926;28;19943;-59
2023/04/05 02:25:18;;;;;;;;;;;;;;;2.60;82.76;100627.31;5069457;28;19950;-59
2023/04/05 02:27:43;;;;;;;;;;;;;;;2.62;82.21;100625.56;5065711;28;19942;-59
2023/04/05 02:30:09;;;;;;;;;;;;;;;2.59;81.78;100626.41;5069217;28;19948;-59
2023/04/05 02:32:35;;;;;;;;;;;;;;;2.55;82.32;100623.75;5069703;28;19924;-59
2023/04/05 02:35:00;;;;;;;;;;;;;;;2.51;83.30;100620.22;5068165;28;20036;-59
2023/04/05 02:37:26;;;;;;;;;;;;;;;2.48;82.57;100621.94;5067178;28;19933;-59
2023/04/05 02:39:51;;;;;;;;;;;;;;;2.43;84.02;100618.38;5069438;28;19925;-59
2023/04/05 02:42:16;;;;;;;;;;;;;;;2.44;83.30;100618.41;5069508;28;19917;-59
2023/04/05 02:44:42;;;;;;;;;;;;;;;2.45;83.30;100622.81;5066680;28;19975;-59
2023/04/05 02:47:07;;;;;;;;;;;;;;;2.43;83.82;100621.00;5049609;28;19935;-59
2023/04/05 02:49:32;;;;;;;;;;;;;;;2.42;83.06;100624.50;5049687;28;19925;-59
2023/04/05 02:51:57;;;;;;;;;;;;;;;2.41;83.92;100626.25;5052148;28;19949;-59
2023/04/05 02:54:23;;;;;;;;;;;;;;;2.40;83.69;100624.50;4843547;28;20049;-59
2023/04/05 02:56:49;;;;;;;;;;;;;;;2.39;83.38;100617.47;5052007;28;20375;-59
2023/04/05 02:59:14;;;;;;;;;;;;;;;2.40;83.49;100619.25;5049167;28;19962;-59
2023/04/05 03:01:42;;;;;;;;;;;;;;;2.36;84.67;100614.81;5049686;28;19925;-59
2023/04/05 03:04:08;;;;;;;;;;;;;;;2.35;84.41;100613.06;5065255;28;19970;-59
2023/04/05 03:06:33;;;;;;;;;;;;;;;2.35;84.20;100614.81;5069664;28;20333;-58
2023/04/05 03:09:00;;;;;;;;;;;;;;;2.34;83.96;100613.91;5071611;28;19937;-59
2023/04/05 03:11:26;;;;;;;;;;;;;;;2.37;84.86;100620.97;5071482;28;19942;-59
2023/04/05 03:13:52;;;;;;;;;;;;;;;2.35;84.89;100620.94;5054771;28;19932;-59
2023/04/05 03:16:19;;;;;;;;;;;;;;;2.33;84.77;100620.03;5052003;28;19932;-59
2023/04/05 03:18:44;;;;;;;;;;;;;;;2.35;85.07;100610.44;5052214;28;19929;-59
2023/04/05 03:21:10;;;;;;;;;;;;;;;2.34;85.08;100619.16;5055025;28;19923;-59
2023/04/05 03:23:35;;;;;;;;;;;;;;;2.32;85.33;100631.38;5052478;28;19951;-59
2023/04/05 03:26:01;;;;;;;;;;;;;;;2.34;86.08;100629.66;5052363;28;19955;-58
2023/04/05 03:28:27;;;;;;;;;;;;;;;2.34;85.32;100616.53;5052531;28;20777;-59
2023/04/05 03:30:53;;;;;;;;;;;;;;;2.35;84.99;100625.31;5054896;28;20008;-58
2023/04/05 03:33:19;;;;;;;;;;;;;;;2.33;86.13;100627.91;5071959;28;20035;-58
2023/04/05 03:35:44;;;;;;;;;;;;;;;2.34;85.18;100619.16;5068763;28;19995;-58
2023/04/05 03:38:10;;;;;;;;;;;;;;;2.32;86.38;100614.78;5072512;28;19975;-58
2023/04/05 03:40:35;;;;;;;;;;;;;;;2.30;86.57;100627.91;5072196;28;19928;-58
2023/04/05 03:43:00;;;;;;;;;;;;;;;2.30;85.97;100627.00;5072191;28;19937;-59
2023/04/05 03:45:26;;;;;;;;;;;;;;;2.28;86.47;100624.38;5069282;28;20030;-59
2023/04/05 03:47:51;;;;;;;;;;;;;;;2.27;86.78;100619.09;5072128;28;19913;-59
2023/04/05 03:50:17;;;;;;;;;;;;;;;2.24;85.84;100624.34;5071995;28;19934;-59
2023/04/05 03:52:42;;;;;;;;;;;;;;;2.21;86.57;100621.66;5071904;28;19927;-59
2023/04/05 03:55:08;;;;;;;;;;;;;;;2.20;86.60;100618.16;5058555;28;19941;-59
2023/04/05 03:57:33;;;;;;;;;;;;;;;2.16;86.13;100620.72;5052058;28;19926;-59
2023/04/05 03:59:59;;;;;;;;;;;;;;;2.15;86.38;100618.97;5054181;28;19934;-59
2023/04/05 04:02:24;;;;;;;;;;;;;;;2.13;86.93;100618.97;5063724;28;20317;-59
2023/04/05 04:04:50;;;;;;;;;;;;;;;2.11;86.22;100622.44;5071462;28;19920;-59
2023/04/05 04:07:15;;;;;;;;;;;;;;;2.10;86.36;100620.66;5071228;28;19913;-59
2023/04/05 04:09:40;;;;;;;;;;;;;;;2.08;85.94;100620.66;5068226;28;19958;-59
2023/04/05 04:12:06;;;;;;;;;;;;;;;2.04;87.03;100624.09;5071827;28;19981;-59
2023/04/05 04:14:33;;;;;;;;;;;;;;;2.05;86.79;100624.97;5071341;28;20176;-59
2023/04/05 04:16:58;;;;;;;;;;;;;;;2.03;86.59;100619.72;5071419;28;20110;-59
2023/04/05 04:19:23;;;;;;;;;;;;;;;2.02;86.25;100625.84;5059297;28;19988;-59
2023/04/05 04:21:51;;;;;;;;;;;;;;;2.04;87.52;100618.84;5060039;28;20087;-59
2023/04/05 04:24:17;;;;;;;;;;;;;;;2.04;86.44;100618.84;5071035;28;20066;-60
2023/04/05 04:26:46;;;;;;;;;;;;;;;2.03;86.90;100622.34;5053401;28;20032;-59
2023/04/05 04:29:11;;;;;;;;;;;;;;;1.98;86.46;100616.16;5067495;28;20002;-59
2023/04/05 04:31:44;;;;;;;;;;;;;;;1.99;87.30;100619.69;5051480;28;19929;-59
2023/04/05 04:34:09;;;;;;;;;;;;;;;1.94;87.00;100614.38;5062752;28;19960;-59
2023/04/05 04:36:38;;;;;;;;;;;;;;;1.92;87.83;100623.97;5070769;28;19931;-60
2023/04/05 04:39:06;;;;;;;;;;;;;;;1.89;86.83;100621.31;5066546;28;19934;-60
2023/04/05 04:41:34;;;;;;;;;;;;;;;1.87;86.96;100622.16;5070183;28;19945;-59
2023/04/05 04:44:01;;;;;;;;;;;;;;;1.86;87.71;100623.03;5070039;28;20005;-59
2023/04/05 04:46:29;;;;;;;;;;;;;;;1.89;87.88;100620.44;5069848;28;20002;-59
2023/04/05 04:48:56;;;;;;;;;;;;;;;1.85;87.55;100616.88;5055708;28;20677;-59
2023/04/05 04:51:21;;;;;;;;;;;;;;;1.85;87.13;100621.25;5050121;28;20300;-59
2023/04/05 04:53:47;;;;;;;;;;;;;;;1.84;87.46;100616.88;5053430;28;19959;-59
2023/04/05 04:56:12;;;;;;;;;;;;;;;1.83;87.69;100615.97;5050721;28;20012;-58
2023/04/05 04:58:38;;;;;;;;;;;;;;;1.86;87.89;100612.53;5053646;28;19935;-58
2023/04/05 05:01:07;;;;;;;;;;;;;;;1.87;87.20;100620.41;5057463;28;19969;-59
2023/04/05 05:03:33;;;;;;;;;;;;;;;1.90;87.79;100625.69;5067643;28;19944;-58
2023/04/05 05:05:58;;;;;;;;;;;;;;;1.90;86.34;100620.44;5066720;28;19954;-58
2023/04/05 05:08:24;;;;;;;;;;;;;;;1.90;86.84;100624.81;5070215;28;20383;-58
2023/04/05 05:10:51;;;;;;;;;;;;;;;1.90;86.18;100625.69;5055251;28;20055;-58
2023/04/05 05:13:16;;;;;;;;;;;;;;;1.94;85.92;100632.75;5052572;28;19934;-58
2023/04/05 05:15:41;;;;;;;;;;;;;;;1.92;86.38;100631.84;5053358;28;19948;-58
2023/04/05 05:18:07;;;;;;;;;;;;;;;1.96;86.38;100636.25;5050472;28;19935;-59
2023/04/05 05:20:32;;;;;;;;;;;;;;;1.97;85.68;100638.03;5052578;28;19927;-58
2023/04/05 05:23:00;;;;;;;;;;;;;;;1.99;86.16;100635.41;5050459;28;19921;-58
2023/04/05 05:25:26;;;;;;;;;;;;;;;2.01;84.88;100641.56;5050141;28;20008;-59
2023/04/05 05:27:51;;;;;;;;;;;;;;;2.03;85.65;100638.09;5062947;28;20048;-59
2023/04/05 05:30:17;;;;;;;;;;;;;;;2.12;86.42;100635.56;5056041;28;19935;-59
2023/04/05 05:32:42;;;;;;;;;;;;;;;2.25;86.22;100645.34;5062101;28;20031;-59
2023/04/05 05:35:08;;;;;;;;;;;;;;;2.11;85.72;100591.81;5068014;28;20453;-59
2023/04/05 05:37:33;;;;;;;;;;;;;;;2.70;87.78;100644.91;5050858;28;19917;-59
2023/04/05 05:39:59;;;;;;;;;;;;;;;3.15;88.04;100640.00;5049874;28;19954;-59
2023/04/05 05:42:25;;;;;;;;;;;;;;;4.13;87.53;100640.50;5057231;28;19937;-59
2023/04/05 05:44:50;;;;;;;;;;;;;;;4.61;81.10;100637.09;5065304;28;20443;-59
2023/04/05 05:47:15;;;;;;;;;;;;;;;4.69;77.73;100638.88;5049940;28;19944;-60
2023/04/05 05:49:40;;;;;;;;;;;;;;;4.68;76.68;100644.16;5051550;28;19962;-60
2023/04/05 05:52:06;;;;;;;;;;;;;;;4.69;75.68;100644.16;5070109;28;19956;-60
2023/04/05 05:54:31;;;;;;;;;;;;;;;4.59;74.63;100645.00;5069755;28;19962;-60
2023/04/05 05:56:57;;;;;;;;;;;;;;;4.63;75.38;100646.75;5069538;28;20761;-60
2023/04/05 05:59:23;;;;;;;;;;;;;;;4.89;74.31;100654.69;5064022;28;19936;-60
2023/04/05 06:01:50;;;;;;;;;;;;;;;5.08;72.90;100646.78;5062658;28;19937;-60
2023/04/05 06:04:15;;;;;;;;;;;;;;;5.54;72.75;100651.97;5067852;28;19945;-60
2023/04/05 06:06:42;;;;;;;;;;;;;;;5.92;69.16;100650.13;5068408;28;19924;-60
2023/04/05 06:09:08;;;;;;;;;;;;;;;6.38;67.26;100646.38;5057970;28;20011;-60
2023/04/05 06:11:33;;;;;;;;;;;;;;;7.51;63.35;100662.22;5067284;28;20050;-60
2023/04/05 06:13:58;;;;;;;;;;;;;;;9.02;57.82;100653.19;5063913;28;19940;-60
2023/04/05 06:16:24;;;;;;;;;;;;;;;10.55;51.42;100645.78;5048609;28;19932;-60
2023/04/05 06:18:49;;;;;;;;;;;;;;;11.75;49.28;100639.22;5054485;28;20400;-60
2023/04/05 06:21:15;;;;;;;;;;;;;;;13.05;45.89;100637.06;5059438;28;19931;-60
2023/04/05 06:23:41;;;;;;;;;;;;;;;13.76;42.21;100637.25;5068829;28;19927;-60
2023/04/05 06:26:07;;;;;;;;;;;;;;;13.56;42.35;100644.25;5063374;28;19952;-60
2023/04/05 06:28:32;;;;;;;;;;;;;;;12.71;43.44;100644.38;5063935;28;19975;-60
2023/04/05 06:30:57;;;;;;;;;;;;;;;13.47;42.28;100644.56;5068305;28;19917;-60
2023/04/05 06:33:23;;;;;;;;;;;;;;;14.46;40.61;100646.28;5065710;28;20022;-60
2023/04/05 06:35:48;;;;;;;;;;;;;;;15.25;38.19;100650.22;5068939;28;19932;-60
2023/04/05 06:38:13;;;;;;;;;;;;;;;16.12;36.66;100647.31;5062267;28;19941;-60
2023/04/05 06:40:39;;;;;;;;;;;;;;;15.92;37.40;100645.53;5055080;28;19939;-60
2023/04/05 06:43:04;;;;;;;;;;;;;;;16.70;35.67;100639.22;5071600;28;19920;-60
2023/04/05 06:45:30;;;;;;;;;;;;;;;16.69;35.09;100636.59;5067402;28;19953;-60
2023/04/05 06:47:55;;;;;;;;;;;;;;;17.24;34.67;100635.66;5063686;28;19993;-60
2023/04/05 06:50:20;;;;;;;;;;;;;;;17.55;33.98;100641.25;5072250;28;19934;-60
2023/04/05 06:52:46;;;;;;;;;;;;;;;17.67;34.34;100639.75;5069865;28;20000;-60
2023/04/05 06:55:11;;;;;;;;;;;;;;;18.03;34.17;100645.91;5053336;28;20395;-60
2023/04/05 06:57:36;;;;;;;;;;;;;;;17.56;33.84;100644.81;5050332;28;19924;-60
2023/04/05 07:00:07;;;;;;;;;;;;;;;17.52;34.38;100646.78;5032323;28;20528;-60
2023/04/05 07:02:32;;;;;;;;;;;;;;;17.35;33.91;100644.03;5052057;28;19917;-60
2023/04/05 07:05:03;;;;;;;;;;;;;;;17.35;32.93;100638.66;5047227;28;19986;-60
2023/04/05 07:07:29;;;;;;;;;;;;;;;17.31;33.16;100642.47;5047944;28;19956;-60
2023/04/05 07:09:54;;;;;;;;;;;;;;;16.60;34.58;100650.47;5050715;28;19913;-60
2023/04/05 07:12:19;;;;;;;;;;;;;;;15.91;35.51;100645.59;5049530;28;19920;-60
2023/04/05 07:14:44;;;;;;;;;;;;;;;16.35;36.63;100641.75;5049872;28;20622;-60
2023/04/05 07:17:10;;;;;;;;;;;;;;;16.77;35.88;100640.66;5045267;28;20376;-60
2023/04/05 07:19:35;;;;;;;;;;;;;;;16.24;34.44;100636.03;5040299;28;19935;-60
2023/04/05 07:22:01;;;;;;;;;;;;;;;16.06;35.40;100639.53;5046713;28;19978;-59
2023/04/05 07:24:26;;;;;;;;;;;;;;;16.00;36.10;100639.78;5049764;28;20388;-59
2023/04/05 07:26:51;;;;;;;;;;;;;;;16.44;35.24;100627.94;5038593;28;19927;-60
2023/04/05 07:29:16;;;;;;;;;;;;;;;15.98;35.27;100641.69;5030399;28;20025;-60
2023/04/05 07:31:42;;;;;;;;;;;;;;;15.60;36.28;100636.19;5049058;28;20360;-60
2023/04/05 07:34:07;;;;;;;;;;;;;;;15.47;35.93;100634.09;5051096;28;19935;-60
2023/04/05 07:36:32;;;;;;;;;;;;;;;15.62;35.80;100631.63;5042676;28;19999;-60
2023/04/05 07:38:58;;;;;;;;;;;;;;;15.20;36.70;100636.13;5050293;28;19944;-60
2023/04/05 07:41:30;;;;;;;;;;;;;;;14.83;37.10;100646.56;5041667;28;20029;-60
2023/04/05 07:43:55;;;;;;;;;;;;;;;14.31;37.18;100641.50;5049616;28;19917;-59
2023/04/05 07:46:21;;;;;;;;;;;;;;;14.21;38.76;100643.63;5050157;28;20041;-60
2023/04/05 07:48:49;;;;;;;;;;;;;;;14.84;39.08;100637.63;5041391;28;20035;-60
2023/04/05 07:51:14;;;;;;;;;;;;;;;14.58;39.22;100640.44;5048269;28;19947;-60
2023/04/05 07:53:41;;;;;;;;;;;;;;;14.77;37.05;100640.59;5053875;28;19921;-60
2023/04/05 07:56:07;;;;;;;;;;;;;;;14.50;38.79;100642.53;5049787;28;19931;-59
2023/04/05 07:58:33;;;;;;;;;;;;;;;14.74;40.02;100641.59;5065353;28;19978;-60
2023/04/05 08:01:02;;;;;;;;;;;;;;;14.92;38.96;100638.19;5053624;28;19975;-60
2023/04/05 08:03:28;;;;;;;;;;;;;;;14.88;38.59;100641.91;5066184;28;19917;-60
2023/04/05 08:05:53;;;;;;;;;;;;;;;14.96;38.27;100653.19;5069226;28;19944;-60
2023/04/05 08:08:18;;;;;;;;;;;;;;;15.08;38.10;100646.44;5071035;28;19936;-60
2023/04/05 08:10:44;;;;;;;;;;;;;;;15.57;38.49;100649.75;5071539;28;19923;-59
2023/04/05 08:13:09;;;;;;;;;;;;;;;15.53;37.24;100645.44;5060857;28;20302;-60
2023/04/05 08:15:34;;;;;;;;;;;;;;;15.54;38.68;100644.50;5069330;28;20025;-59
2023/04/05 08:18:00;;;;;;;;;;;;;;;15.88;38.32;100641.22;5064069;28;20012;-59
2023/04/05 08:20:25;;;;;;;;;;;;;;;15.85;38.11;100641.34;5071538;28;19955;-60
2023/04/05 08:22:50;;;;;;;;;;;;;;;15.91;37.02;100634.84;5070726;28;19988;-59
2023/04/05 08:25:16;;;;;;;;;;;;;;;15.91;35.83;100640.22;5054840;28;20464;-59
2023/04/05 08:27:41;;;;;;;;;;;;;;;16.16;35.17;100624.78;5058873;28;20023;-59
2023/04/05 08:30:06;;;;;;;;;;;;;;;16.29;35.32;100631.31;5060968;28;20407;-59
2023/04/05 08:32:32;;;;;;;;;;;;;;;15.96;36.15;100636.41;5061220;28;19917;-59
2023/04/05 08:34:58;;;;;;;;;;;;;;;16.14;36.79;100626.66;5063203;28;19950;-59
2023/04/05 08:37:23;;;;;;;;;;;;;;;16.60;35.86;100632.53;5056564;28;19927;-59
2023/04/05 08:39:48;;;;;;;;;;;;;;;16.99;34.20;100635.13;5070023;28;19921;-59
2023/04/05 08:42:17;;;;;;;;;;;;;;;17.08;33.96;100629.31;5053938;28;19947;-59
2023/04/05 08:44:47;;;;;;;;;;;;;;;16.76;34.73;100638.03;5067552;28;20003;-59
2023/04/05 08:47:17;;;;;;;;;;;;;;;17.06;34.03;100632.06;5069198;28;19938;-59
2023/04/05 08:49:43;;;;;;;;;;;;;;;17.17;34.38;100626.13;5068649;28;20000;-59
2023/04/05 08:52:08;;;;;;;;;;;;;;;17.24;34.11;100632.97;5069358;28;20000;-59
2023/04/05 08:54:34;;;;;;;;;;;;;;;17.54;34.03;100623.38;5062862;28;20372;-59
2023/04/05 08:57:02;;;;;;;;;;;;;;;17.27;33.03;100629.22;5060222;28;19931;-59
2023/04/05 08:59:28;;;;;;;;;;;;;;;17.18;34.16;100635.97;5059767;28;19920;-60
2023/04/05 09:01:54;;;;;;;;;;;;;;;17.28;33.46;100628.31;5066844;28;19942;-59
2023/04/05 09:04:22;;;;;;;;;;;;;;;17.10;33.74;100628.25;5061887;28;20010;-59
2023/04/05 09:06:48;;;;;;;;;;;;;;;17.06;33.80;100626.69;5060730;28;19974;-60
2023/04/05 09:09:14;;;;;;;;;;;;;;;17.48;33.21;100629.06;5060845;28;20015;-59
2023/04/05 09:11:39;;;;;;;;;;;;;;;17.95;32.73;100619.41;5059903;28;21330;-60
2023/04/05 09:14:05;;;;;;;;;;;;;;;18.44;32.10;100616.75;5059430;28;19950;-60
2023/04/05 09:16:38;;;;;;;;;;;;;;;18.69;31.66;100623.41;5056725;28;19955;-60
2023/04/05 09:19:03;;;;;;;;;;;;;;;18.91;31.85;100617.69;5069047;28;19918;-60
2023/04/05 09:21:29;;;;;;;;;;;;;;;18.87;30.82;100616.97;5068589;28;19927;-59
2023/04/05 09:23:54;;;;;;;;;;;;;;;18.86;32.10;100617.91;5059124;28;19927;-59
2023/04/05 09:26:21;;;;;;;;;;;;;;;18.51;33.98;100613.66;5063610;28;20415;-59
2023/04/05 09:28:46;;;;;;;;;;;;;;;18.67;30.79;100614.53;5066746;28;19946;-59
2023/04/05 09:31:30;;;;;;;;;;;;;;;18.61;32.31;100616.69;5059320;28;19997;-59
2023/04/05 09:34:01;;;;;;;;;;;;;;;18.92;31.49;100614.00;5070050;28;19916;-59
2023/04/05 09:36:27;;;;;;;;;;;;;;;18.89;30.60;100619.59;5060303;28;19927;-59
2023/04/05 09:38:52;;;;;;;;;;;;;;;18.97;30.38;100612.81;5069109;28;19927;-59
2023/04/05 09:41:17;;;;;;;;;;;;;;;18.54;30.84;100609.91;5069035;28;19916;-60
2023/04/05 09:43:43;;;;;;;;;;;;;;;18.51;33.13;100615.47;5066975;28;19920;-59
2023/04/05 09:46:27;;;;;;;;;;;;;;;18.97;32.73;100611.91;5067709;28;19960;-60
2023/04/05 09:48:52;;;;;;;;;;;;;;;19.43;31.14;100608.31;5068738;28;19913;-59
2023/04/05 09:51:17;;;;;;;;;;;;;;;19.13;29.19;100612.78;5068648;28;19932;-59
2023/04/05 09:53:56;;;;;;;;;;;;;;;18.49;29.80;100606.59;5062336;28;19932;-59
2023/04/05 09:56:21;;;;;;;;;;;;;;;18.66;29.78;100602.03;5049827;28;19959;-59
2023/04/05 09:58:50;;;;;;;;;;;;;;;18.72;31.54;100606.19;5053048;28;19932;-59
2023/04/05 10:01:15;;;;;;;;;;;;;;;18.85;31.65;100608.09;5068476;28;20017;-59
2023/04/05 10:03:47;;;;;;;;;;;;;;;19.05;32.63;100598.88;5069792;28;20426;-59
2023/04/05 10:06:13;;;;;;;;;;;;;;;18.71;29.83;100604.44;5050508;28;20042;-59
2023/04/05 10:08:38;;;;;;;;;;;;;;;19.00;29.50;100607.22;5060534;28;19978;-59
2023/04/05 10:11:05;;;;;;;;;;;;;;;18.71;29.03;100597.25;5048618;28;19923;-59
2023/04/05 10:13:30;;;;;;;;;;;;;;;18.86;30.91;100596.34;5059728;28;20563;-59
2023/04/05 10:15:59;;;;;;;;;;;;;;;19.33;31.19;100597.19;5052666;28;19964;-60
2023/04/05 10:18:28;;;;;;;;;;;;;;;19.80;29.23;100582.69;5052888;28;20390;-59
2023/04/05 10:20:56;;;;;;;;;;;;;;;20.03;30.51;100591.06;5064619;28;19916;-59
2023/04/05 10:23:27;;;;;;;;;;;;;;;20.37;28.59;100585.34;5073672;28;19924;-59
2023/04/05 10:25:52;;;;;;;;;;;;;;;20.04;27.12;100584.72;5073651;28;20058;-59
2023/04/05 10:28:26;;;;;;;;;;;;;;;20.07;30.13;100587.22;5073871;28;20007;-60
2023/04/05 10:30:57;;;;;;;;;;;;;;;19.37;26.92;100584.41;5071405;28;20031;-60
2023/04/05 10:33:29;;;;;;;;;;;;;;;19.05;27.50;100578.16;5073209;28;19938;-59
2023/04/05 10:36:07;;;;;;;;;;;;;;;18.67;28.51;100575.94;5063544;28;20288;-59
2023/04/05 10:38:46;;;;;;;;;;;;;;;18.62;27.96;100572.63;5068045;28;20007;-59
2023/04/05 10:41:13;;;;;;;;;;;;;;;19.21;28.89;100567.34;5073729;28;19920;-59
2023/04/05 10:43:39;;;;;;;;;;;;;;;19.52;29.88;100567.31;5063110;28;19917;-59
2023/04/05 10:46:05;;;;;;;;;;;;;;;20.05;26.87;100562.16;5053291;28;19921;-59
2023/04/05 10:48:31;;;;;;;;;;;;;;;20.79;29.08;100565.47;5055017;28;20054;-59
2023/04/05 10:50:57;;;;;;;;;;;;;;;20.98;28.75;100559.75;5054230;28;19972;-59
2023/04/05 10:53:24;;;;;;;;;;;;;;;20.06;27.24;100569.31;5052059;28;19986;-59
2023/04/05 10:55:49;;;;;;;;;;;;;;;20.31;29.16;100561.41;5054303;28;19963;-59
2023/04/05 10:58:15;;;;;;;;;;;;;;;19.91;26.70;100564.84;5069044;28;20404;-59
2023/04/05 11:00:41;;;;;;;;;;;;;;;20.25;27.65;100559.09;5072055;28;20054;-59
2023/04/05 11:03:06;;;;;;;;;;;;;;;20.22;30.16;100558.41;5068727;28;20435;-59
2023/04/05 11:05:36;;;;;;;;;;;;;;;19.56;27.06;100558.03;5071599;28;19920;-59
2023/04/05 11:08:04;;;;;;;;;;;;;;;19.56;28.89;100563.44;5066834;28;19943;-59
2023/04/05 11:10:31;;;;;;;;;;;;;;;20.14;26.16;100560.72;5052797;28;19921;-59
2023/04/05 11:12:56;;;;;;;;;;;;;;;19.56;26.82;100555.34;5052871;28;19938;-59
2023/04/05 11:15:24;;;;;;;;;;;;;;;19.48;29.78;100545.03;5067419;28;19921;-59
2023/04/05 11:18:10;;;;;;;;;;;;;;;20.14;29.57;100555.31;5069300;28;19958;-59
2023/04/05 11:20:51;;;;;;;;;;;;;;;20.76;26.68;100544.03;5072239;28;19948;-59
2023/04/05 11:23:20;;;;;;;;;;;;;;;20.81;26.35;100552.72;5072719;28;19916;-59
2023/04/05 11:25:46;;;;;;;;;;;;;;;21.05;28.82;100542.16;5065571;28;20057;-59
2023/04/05 11:28:41;;;;;;;;;;;;;;;21.25;28.31;100547.09;5051619;28;20038;-60
2023/04/05 11:31:13;;;;;;;;;;;;;;;21.04;26.75;100537.72;5046302;28;19920;-59
2023/04/05 11:33:38;;;;;;;;;;;;;;;21.01;26.85;100543.31;5071930;28;20417;-59
2023/04/05 11:36:04;;;;;;;;;;;;;;;20.51;24.57;100539.38;5063212;28;19917;-60
2023/04/05 11:38:29;;;;;;;;;;;;;;;19.98;26.28;100527.53;5051887;28;19924;-59
2023/04/05 11:41:05;;;;;;;;;;;;;;;19.74;28.23;100519.13;5051290;28;19919;-59
2023/04/05 11:43:30;;;;;;;;;;;;;;;19.53;27.76;100520.44;5057800;28;19974;-59
2023/04/05 11:45:55;;;;;;;;;;;;;;;19.78;28.97;100523.38;5057302;28;19924;-59
2023/04/05 11:48:21;;;;;;;;;;;;;;;20.41;28.64;100516.59;5051216;28;19940;-60
2023/04/05 11:50:46;;;;;;;;;;;;;;;20.65;29.45;100509.63;5051233;28;19948;-59
2023/04/05 11:53:13;;;;;;;;;;;;;;;21.59;28.83;100520.28;5050867;28;19923;-59
2023/04/05 11:55:41;;;;;;;;;;;;;;;21.68;28.72;100511.50;5058612;28;19973;-59
2023/04/05 11:58:10;;;;;;;;;;;;;;;21.37;26.33;100509.22;5071541;28;19916;-60
2023/04/05 12:00:35;;;;;;;;;;;;;;;21.44;27.51;100504.25;5061938;28;20418;-60
2023/04/05 12:03:01;;;;;;;;;;;;;;;21.50;26.96;100509.25;5053985;28;19916;-59
2023/04/05 12:05:26;;;;;;;;;;;;;;;21.51;25.36;100510.97;5071399;28;19922;-60
2023/04/05 12:07:53;;;;;;;;;;;;;;;21.57;25.66;100505.13;5071938;28;19957;-59
2023/04/05 12:10:20;;;;;;;;;;;;;;;21.96;23.76;100505.91;5068159;28;20047;-60
2023/04/05 12:12:46;;;;;;;;;;;;;;;21.25;25.48;100496.50;5071443;28;19916;-60
2023/04/05 12:15:17;;;;;;;;;;;;;;;20.80;26.72;100497.78;5068648;28;20412;-59
2023/04/05 12:17:44;;;;;;;;;;;;;;;20.39;26.32;100496.06;5071569;28;19927;-59
2023/04/05 12:20:10;;;;;;;;;;;;;;;20.55;27.83;100494.09;5070996;28;19969;-59
2023/04/05 12:22:36;;;;;;;;;;;;;;;21.06;27.62;100487.06;5071518;28;19924;-60
2023/04/05 12:25:02;;;;;;;;;;;;;;;21.61;28.30;100490.41;5067332;28;19994;-59
2023/04/05 12:27:27;;;;;;;;;;;;;;;21.29;26.36;100480.94;5056098;28;19967;-59
2023/04/05 12:29:52;;;;;;;;;;;;;;;;;;5051492;28;19951;-59
2023/04/05 12:32:17;;;;;;;;;;;;;;;22.07;25.96;100480.75;5051513;28;20014;-59
2023/04/05 12:34:46;;;;;;;;;;;;;;;22.07;27.73;100484.31;5066308;28;19956;-59
2023/04/05 12:37:11;;;;;;;;;;;;;;;22.12;27.83;100471.31;5053371;28;19931;-59
2023/04/05 12:39:37;;;;;;;;;;;;;;;22.17;25.57;100479.97;5051068;28;19913;-59
2023/04/05 12:42:02;;;;;;;;;;;;;;;22.22;25.58;100476.94;5065159;28;19989;-59